sensor_id;sensor_type;location;lat;lon;timestamp;pressure;altitude;pressure_sealevel;temperature;humidity
22688;BME280;11511;51.514;7.080;2022-12-07T00:02:42;101168.94;;;3.66;100.00
22688;BME280;11511;51.514;7.080;2022-12-07T00:05:19;101170.69;;;3.66;100.00
22688;BME280;11511;51.514;7.080;2022-12-07T00:07:54;101164.63;;;3.71;100.00
22688;BME280;11511;51.514;7.080;2022-12-07T00:14:01;101171.56;;;3.68;100.00
22688;BME280;11511;51.514;7.080;2022-12-07T00:17:24;101159.41;;;3.70;100.00
22688;BME280;11511;51.514;7.080;2022-12-07T00:20:25;101161.13;;;3.69;100.00
22688;BME280;11511;51.514;7.080;2022-12-07T00:22:54;101157.66;;;3.73;100.00
22688;BME280;11511;51.514;7.080;2022-12-07T00:25:22;101164.63;;;3.76;100.00
22688;BME280;11511;51.514;7.080;2022-12-07T00:27:49;101154.19;;;3.74;100.00
22688;BME280;11511;51.514;7.080;2022-12-07T00:30:19;101162.03;;;3.78;100.00
22688;BME280;11511;51.514;7.080;2022-12-07T00:32:56;101165.50;;;3.78;100.00
22688;BME280;11511;51.514;7.080;2022-12-07T00:35:26;101151.59;;;3.79;100.00
22688;BME280;11511;51.514;7.080;2022-12-07T00:38:05;101152.47;;;3.81;100.00
22688;BME280;11511;51.514;7.080;2022-12-07T00:40:41;101148.13;;;3.79;100.00
22688;BME280;11511;51.514;7.080;2022-12-07T00:43:16;101150.72;;;3.82;100.00
22688;BME280;11511;51.514;7.080;2022-12-07T00:45:55;101150.69;;;3.83;100.00
22688;BME280;11511;51.514;7.080;2022-12-07T00:48:23;101150.72;;;3.82;100.00
22688;BME280;11511;51.514;7.080;2022-12-07T00:50:50;101146.34;;;3.85;100.00
22688;BME280;11511;51.514;7.080;2022-12-07T00:53:17;101148.97;;;3.84;100.00
22688;BME280;11511;51.514;7.080;2022-12-07T00:55:51;101146.34;;;3.84;100.00
22688;BME280;11511;51.514;7.080;2022-12-07T00:58:19;101142.03;;;3.83;100.00
22688;BME280;11511;51.514;7.080;2022-12-07T01:00:46;101142.88;;;3.85;100.00
22688;BME280;11511;51.514;7.080;2022-12-07T01:03:20;101135.94;;;3.84;100.00
22688;BME280;11511;51.514;7.080;2022-12-07T01:05:54;101134.19;;;3.84;100.00
22688;BME280;11511;51.514;7.080;2022-12-07T01:08:46;101137.66;;;3.86;100.00
22688;BME280;11511;51.514;7.080;2022-12-07T01:11:46;101134.19;;;3.86;100.00
22688;BME280;11511;51.514;7.080;2022-12-07T01:14:14;101136.81;;;3.87;100.00
22688;BME280;11511;51.514;7.080;2022-12-07T01:16:48;101131.59;;;3.84;100.00
22688;BME280;11511;51.514;7.080;2022-12-07T01:19:18;101129.84;;;3.85;100.00
22688;BME280;11511;51.514;7.080;2022-12-07T01:21:45;101129.84;;;3.83;100.00
22688;BME280;11511;51.514;7.080;2022-12-07T01:24:18;101138.53;;;3.85;100.00
22688;BME280;11511;51.514;7.080;2022-12-07T01:26:45;101135.94;;;3.85;100.00
22688;BME280;11511;51.514;7.080;2022-12-07T01:29:15;101123.78;;;3.84;100.00
22688;BME280;11511;51.514;7.080;2022-12-07T01:31:48;101128.16;;;3.79;100.00
22688;BME280;11511;51.514;7.080;2022-12-07T01:34:19;101134.22;;;3.73;100.00
22688;BME280;11511;51.514;7.080;2022-12-07T01:37:00;101135.94;;;3.64;100.00
22688;BME280;11511;51.514;7.080;2022-12-07T01:39:27;101143.78;;;3.68;100.00
22688;BME280;11511;51.514;7.080;2022-12-07T01:42:43;101140.31;;;3.71;100.00
22688;BME280;11511;51.514;7.080;2022-12-07T01:47:59;101144.63;;;3.64;100.00
22688;BME280;11511;51.514;7.080;2022-12-07T01:50:31;101147.22;;;3.61;100.00
22688;BME280;11511;51.514;7.080;2022-12-07T01:53:02;101136.81;;;3.61;100.00
22688;BME280;11511;51.514;7.080;2022-12-07T01:55:34;101138.53;;;3.58;100.00
22688;BME280;11511;51.514;7.080;2022-12-07T01:58:04;101150.72;;;3.54;100.00
22688;BME280;11511;51.514;7.080;2022-12-07T02:00:31;101138.56;;;3.49;100.00
22688;BME280;11511;51.514;7.080;2022-12-07T02:03:07;101131.59;;;3.43;100.00
22688;BME280;11511;51.514;7.080;2022-12-07T03:17:12;101131.88;;;1.88;100.00
22688;BME280;11511;51.514;7.080;2022-12-07T03:19:20;101142.84;;;1.55;100.00
22688;BME280;11511;51.514;7.080;2022-12-07T03:21:58;101134.31;;;1.72;100.00
22688;BME280;11511;51.514;7.080;2022-12-07T03:24:52;101142.78;;;1.49;100.00
22688;BME280;11511;51.514;7.080;2022-12-07T03:27:25;101127.31;;;1.60;100.00
22688;BME280;11511;51.514;7.080;2022-12-07T03:30:08;101137.53;;;1.42;100.00
22688;BME280;11511;51.514;7.080;2022-12-07T03:32:41;101138.19;;;1.19;100.00
22688;BME280;11511;51.514;7.080;2022-12-07T03:36:06;101136.72;;;1.46;100.00
22688;BME280;11511;51.514;7.080;2022-12-07T03:38:42;101131.22;;;1.15;100.00
22688;BME280;11511;51.514;7.080;2022-12-07T03:41:20;101135.72;;;1.31;100.00
22688;BME280;11511;51.514;7.080;2022-12-07T03:43:49;101128.25;;;1.71;100.00
22688;BME280;11511;51.514;7.080;2022-12-07T03:55:24;101128.41;;;1.92;100.00
22688;BME280;11511;51.514;7.080;2022-12-07T03:58:12;101131.78;;;1.76;100.00
22688;BME280;11511;51.514;7.080;2022-12-07T04:01:00;101128.47;;;2.00;100.00
22688;BME280;11511;51.514;7.080;2022-12-07T04:03:38;101125.00;;;1.99;100.00
22688;BME280;11511;51.514;7.080;2022-12-07T04:06:08;101129.38;;;2.05;100.00
22688;BME280;11511;51.514;7.080;2022-12-07T04:08:39;101123.25;;;1.97;100.00
22688;BME280;11511;51.514;7.080;2022-12-07T04:11:09;101122.38;;;1.98;100.00
22688;BME280;11511;51.514;7.080;2022-12-07T04:13:37;101125.00;;;2.01;100.00
22688;BME280;11511;51.514;7.080;2022-12-07T04:16:36;101123.38;;;2.14;100.00
22688;BME280;11511;51.514;7.080;2022-12-07T04:19:13;101121.69;;;2.19;100.00
22688;BME280;11511;51.514;7.080;2022-12-07T04:22:17;101121.69;;;2.19;100.00
22688;BME280;11511;51.514;7.080;2022-12-07T04:24:43;101126.84;;;2.16;100.00
22688;BME280;11511;51.514;7.080;2022-12-07T04:27:15;101125.06;;;2.10;100.00
22688;BME280;11511;51.514;7.080;2022-12-07T04:29:49;101124.09;;;1.90;100.00
22688;BME280;11511;51.514;7.080;2022-12-07T04:32:23;101125.84;;;1.97;100.00
22688;BME280;11511;51.514;7.080;2022-12-07T04:34:54;101120.56;;;1.83;100.00
22688;BME280;11511;51.514;7.080;2022-12-07T04:37:26;101123.75;;;1.49;100.00
22688;BME280;11511;51.514;7.080;2022-12-07T04:39:53;101120.38;;;1.56;100.00
22688;BME280;11511;51.514;7.080;2022-12-07T04:42:30;101126.63;;;1.81;100.00
22688;BME280;11511;51.514;7.080;2022-12-07T04:45:03;101123.91;;;1.64;100.00
22688;BME280;11511;51.514;7.080;2022-12-07T04:47:35;101122.19;;;1.69;100.00
22688;BME280;11511;51.514;7.080;2022-12-07T04:50:03;101121.34;;;1.72;100.00
22688;BME280;11511;51.514;7.080;2022-12-07T04:52:30;101125.78;;;1.83;100.00
22688;BME280;11511;51.514;7.080;2022-12-07T04:54:59;101121.44;;;1.82;100.00
22688;BME280;11511;51.514;7.080;2022-12-07T04:57:32;101124.78;;;1.69;100.00
22688;BME280;11511;51.514;7.080;2022-12-07T05:00:04;101118.59;;;1.50;100.00
22688;BME280;11511;51.514;7.080;2022-12-07T05:02:31;101112.59;;;1.57;100.00
22688;BME280;11511;51.514;7.080;2022-12-07T05:05:01;101116.13;;;1.68;100.00
22688;BME280;11511;51.514;7.080;2022-12-07T05:07:47;101114.38;;;1.63;100.00
22688;BME280;11511;51.514;7.080;2022-12-07T05:10:28;101120.50;;;1.76;100.00
22688;BME280;11511;51.514;7.080;2022-12-07T05:12:59;101107.56;;;1.82;100.00
22688;BME280;11511;51.514;7.080;2022-12-07T05:15:28;101111.88;;;1.80;100.00
22688;BME280;11511;51.514;7.080;2022-12-07T05:18:01;101111.03;;;1.79;100.00
22688;BME280;11511;51.514;7.080;2022-12-07T05:20:44;101117.88;;;1.71;100.00
22688;BME280;11511;51.514;7.080;2022-12-07T05:23:12;101116.94;;;1.58;100.00
22688;BME280;11511;51.514;7.080;2022-12-07T05:25:42;101112.53;;;1.51;100.00
22688;BME280;11511;51.514;7.080;2022-12-07T05:28:21;101111.72;;;1.58;100.00
22688;BME280;11511;51.514;7.080;2022-12-07T05:31:00;101118.78;;;1.76;100.00
22688;BME280;11511;51.514;7.080;2022-12-07T05:34:05;101114.53;;;1.84;100.00
22688;BME280;11511;51.514;7.080;2022-12-07T05:36:41;101120.56;;;1.83;100.00
22688;BME280;11511;51.514;7.080;2022-12-07T05:39:17;101111.97;;;1.90;100.00
22688;BME280;11511;51.514;7.080;2022-12-07T05:41:47;101115.44;;;1.94;100.00
22688;BME280;11511;51.514;7.080;2022-12-07T05:44:45;101108.47;;;1.87;100.00
22688;BME280;11511;51.514;7.080;2022-12-07T05:47:44;101111.09;;;1.90;100.00
22688;BME280;11511;51.514;7.080;2022-12-07T05:50:18;101122.34;;;1.89;100.00
22688;BME280;11511;51.514;7.080;2022-12-07T05:53:13;101099.84;;;1.92;100.00
22688;BME280;11511;51.514;7.080;2022-12-07T05:55:52;101104.19;;;1.98;100.00
22688;BME280;11511;51.514;7.080;2022-12-07T05:58:22;101106.81;;;2.01;100.00
22688;BME280;11511;51.514;7.080;2022-12-07T06:01:25;101100.75;;;1.99;100.00
22688;BME280;11511;51.514;7.080;2022-12-07T06:04:05;101107.72;;;2.03;100.00
22688;BME280;11511;51.514;7.080;2022-12-07T06:06:47;101105.91;;;1.94;100.00
22688;BME280;11511;51.514;7.080;2022-12-07T06:13:25;101106.72;;;1.83;100.00
22688;BME280;11511;51.514;7.080;2022-12-07T06:16:20;101104.19;;;1.90;100.00
22688;BME280;11511;51.514;7.080;2022-12-07T06:19:58;101101.59;;;1.90;100.00
22688;BME280;11511;51.514;7.080;2022-12-07T06:31:36;101113.72;;;1.91;100.00
22688;BME280;11511;51.514;7.080;2022-12-07T06:38:19;101105.97;;;2.02;100.00
22688;BME280;11511;51.514;7.080;2022-12-07T06:41:37;101115.50;;;2.01;100.00
22688;BME280;11511;51.514;7.080;2022-12-07T06:44:16;101118.94;;;1.99;100.00
22688;BME280;11511;51.514;7.080;2022-12-07T06:46:52;101122.47;;;2.07;100.00
22688;BME280;11511;51.514;7.080;2022-12-07T06:50:07;101123.34;;;2.08;100.00
22688;BME280;11511;51.514;7.080;2022-12-07T06:53:21;101119.75;;;1.87;100.00
22688;BME280;11511;51.514;7.080;2022-12-07T06:55:58;101120.63;;;1.88;100.00
22688;BME280;11511;51.514;7.080;2022-12-07T06:58:25;101122.84;;;1.45;100.00
22688;BME280;11511;51.514;7.080;2022-12-07T07:01:21;101115.19;;;1.57;100.00
22688;BME280;11511;51.514;7.080;2022-12-07T07:03:54;101113.50;;;1.64;100.00
22688;BME280;11511;51.514;7.080;2022-12-07T07:07:05;101121.31;;;1.70;100.00
22688;BME280;11511;51.514;7.080;2022-12-07T07:10:19;101117.00;;;1.70;100.00
22688;BME280;11511;51.514;7.080;2022-12-07T07:13:40;101122.78;;;1.39;100.00
22688;BME280;11511;51.514;7.080;2022-12-07T07:16:17;101123.81;;;1.53;100.00
22688;BME280;11511;51.514;7.080;2022-12-07T07:18:46;101131.53;;;1.49;100.00
22688;BME280;11511;51.514;7.080;2022-12-07T07:21:14;101115.16;;;1.54;100.00
22688;BME280;11511;51.514;7.080;2022-12-07T07:23:42;101129.94;;;1.66;100.00
22688;BME280;11511;51.514;7.080;2022-12-07T07:26:10;101133.53;;;1.82;100.00
22688;BME280;11511;51.514;7.080;2022-12-07T07:28:38;101134.44;;;1.85;100.00
22688;BME280;11511;51.514;7.080;2022-12-07T07:31:09;101132.75;;;1.89;100.00
22688;BME280;11511;51.514;7.080;2022-12-07T07:33:46;101139.66;;;1.87;100.00
22688;BME280;11511;51.514;7.080;2022-12-07T07:36:14;101138.75;;;1.85;100.00
22688;BME280;11511;51.514;7.080;2022-12-07T07:38:50;101132.78;;;1.98;100.00
22688;BME280;11511;51.514;7.080;2022-12-07T07:41:20;101132.72;;;1.86;100.00
22688;BME280;11511;51.514;7.080;2022-12-07T07:43:53;101128.28;;;1.73;100.00
22688;BME280;11511;51.514;7.080;2022-12-07T07:46:20;101134.41;;;1.81;100.00
22688;BME280;11511;51.514;7.080;2022-12-07T07:55:41;101130.34;;;2.22;100.00
22688;BME280;11511;51.514;7.080;2022-12-07T07:58:34;101138.16;;;2.27;100.00
22688;BME280;11511;51.514;7.080;2022-12-07T08:01:53;101136.44;;;2.30;100.00
22688;BME280;11511;51.514;7.080;2022-12-07T08:05:29;101133.88;;;2.33;100.00
22688;BME280;11511;51.514;7.080;2022-12-07T08:08:32;101126.94;;;2.35;100.00
22688;BME280;11511;51.514;7.080;2022-12-07T08:11:05;101132.22;;;2.45;100.00
22688;BME280;11511;51.514;7.080;2022-12-07T08:13:36;101128.72;;;2.47;100.00
22688;BME280;11511;51.514;7.080;2022-12-07T08:16:11;101128.72;;;2.47;100.00
22688;BME280;11511;51.514;7.080;2022-12-07T08:18:42;101132.25;;;2.55;100.00
22688;BME280;11511;51.514;7.080;2022-12-07T08:21:12;101133.13;;;2.60;100.00
22688;BME280;11511;51.514;7.080;2022-12-07T08:23:43;101128.84;;;2.71;100.00
22688;BME280;11511;51.514;7.080;2022-12-07T08:26:21;101137.50;;;2.77;100.00
22688;BME280;11511;51.514;7.080;2022-12-07T08:28:55;101134.91;;;2.75;100.00
22688;BME280;11511;51.514;7.080;2022-12-07T08:31:23;101142.75;;;2.83;100.00
22688;BME280;11511;51.514;7.080;2022-12-07T08:34:00;101142.81;;;2.99;100.00
22688;BME280;11511;51.514;7.080;2022-12-07T08:36:33;101139.34;;;3.08;100.00
22688;BME280;11511;51.514;7.080;2022-12-07T08:39:01;101144.56;;;3.10;100.00
22688;BME280;11511;51.514;7.080;2022-12-07T08:41:30;101140.22;;;3.12;100.00
22688;BME280;11511;51.514;7.080;2022-12-07T08:44:04;101141.94;;;3.06;100.00
22688;BME280;11511;51.514;7.080;2022-12-07T08:46:40;101141.09;;;3.09;100.00
22688;BME280;11511;51.514;7.080;2022-12-07T08:49:16;101145.41;;;2.99;100.00
22688;BME280;11511;51.514;7.080;2022-12-07T08:51:52;101141.06;;;3.03;100.00
22688;BME280;11511;51.514;7.080;2022-12-07T08:54:19;101146.25;;;3.01;100.00
22688;BME280;11511;51.514;7.080;2022-12-07T08:57:25;101143.69;;;2.98;100.00
22688;BME280;11511;51.514;7.080;2022-12-07T08:59:53;101144.53;;;2.94;100.00
22688;BME280;11511;51.514;7.080;2022-12-07T09:02:36;101143.69;;;2.97;100.00
22688;BME280;11511;51.514;7.080;2022-12-07T09:05:06;101141.09;;;3.12;100.00
22688;BME280;11511;51.514;7.080;2022-12-07T09:07:46;101142.88;;;3.31;100.00
22688;BME280;11511;51.514;7.080;2022-12-07T09:10:36;101131.59;;;3.60;100.00
22688;BME280;11511;51.514;7.080;2022-12-07T09:13:17;101128.13;;;4.00;100.00
22688;BME280;11511;51.514;7.080;2022-12-07T09:19:58;101129.66;;;4.67;100.00
22688;BME280;11511;51.514;7.080;2022-12-07T09:23:06;101126.16;;;4.72;100.00
22688;BME280;11511;51.514;7.080;2022-12-07T09:25:36;101131.34;;;4.77;100.00
22688;BME280;11511;51.514;7.080;2022-12-07T09:28:03;101126.25;;;4.51;100.00
22688;BME280;11511;51.514;7.080;2022-12-07T09:30:34;101123.59;;;4.60;100.00
22688;BME280;11511;51.514;7.080;2022-12-07T09:33:02;101125.41;;;4.40;100.00
22688;BME280;11511;51.514;7.080;2022-12-07T09:35:34;101123.59;;;4.62;100.00
22688;BME280;11511;51.514;7.080;2022-12-07T09:38:02;101127.94;;;4.64;100.00
22688;BME280;11511;51.514;7.080;2022-12-07T09:40:34;101118.41;;;4.54;100.00
22688;BME280;11511;51.514;7.080;2022-12-07T09:43:20;101112.44;;;4.20;100.00
22688;BME280;11511;51.514;7.080;2022-12-07T09:46:06;101119.22;;;4.67;100.00
22688;BME280;11511;51.514;7.080;2022-12-07T09:49:00;101105.94;;;5.13;100.00
22688;BME280;11511;51.514;7.080;2022-12-07T09:51:34;101098.88;;;5.25;100.00
22688;BME280;11511;51.514;7.080;2022-12-07T09:54:12;101099.81;;;5.20;100.00
22688;BME280;11511;51.514;7.080;2022-12-07T09:57:07;101091.91;;;5.26;100.00
22688;BME280;11511;51.514;7.080;2022-12-07T09:59:45;101104.97;;;5.23;100.00
22688;BME280;11511;51.514;7.080;2022-12-07T10:05:48;101104.25;;;5.01;100.00
22688;BME280;11511;51.514;7.080;2022-12-07T10:08:55;101090.47;;;4.78;100.00
22688;BME280;11511;51.514;7.080;2022-12-07T10:16:40;101094.63;;;5.14;100.00
22688;BME280;11511;51.514;7.080;2022-12-07T10:23:15;101078.81;;;5.30;100.00
22688;BME280;11511;51.514;7.080;2022-12-07T10:30:13;101082.47;;;5.03;100.00
22688;BME280;11511;51.514;7.080;2022-12-07T10:39:18;101082.25;;;5.35;100.00
22688;BME280;11511;51.514;7.080;2022-12-07T10:42:21;101077.22;;;5.13;100.00
22688;BME280;11511;51.514;7.080;2022-12-07T10:45:17;101064.13;;;5.16;100.00
22688;BME280;11511;51.514;7.080;2022-12-07T10:50:56;101059.50;;;5.48;100.00
22688;BME280;11511;51.514;7.080;2022-12-07T10:53:40;101059.63;;;5.33;100.00
22688;BME280;11511;51.514;7.080;2022-12-07T11:15:45;101046.38;;;6.38;100.00
22688;BME280;11511;51.514;7.080;2022-12-07T11:51:41;101003.84;;;6.26;100.00
22688;BME280;11511;51.514;7.080;2022-12-07T11:54:38;101007.50;;;6.08;100.00
22688;BME280;11511;51.514;7.080;2022-12-07T11:57:14;101005.97;;;5.92;100.00
22688;BME280;11511;51.514;7.080;2022-12-07T11:59:51;101005.22;;;5.77;100.00
22688;BME280;11511;51.514;7.080;2022-12-07T12:05:29;101008.88;;;5.63;100.00
22688;BME280;11511;51.514;7.080;2022-12-07T12:08:11;101003.59;;;5.67;100.00
22688;BME280;11511;51.514;7.080;2022-12-07T12:19:41;100989.13;;;5.31;100.00
22688;BME280;11511;51.514;7.080;2022-12-07T12:27:46;100989.38;;;5.96;100.00
22688;BME280;11511;51.514;7.080;2022-12-07T12:45:46;100975.38;;;6.01;100.00
22688;BME280;11511;51.514;7.080;2022-12-07T12:57:42;100956.34;;;5.84;100.00
22688;BME280;11511;51.514;7.080;2022-12-07T13:00:21;100962.53;;;5.75;100.00
22688;BME280;11511;51.514;7.080;2022-12-07T13:03:16;100957.50;;;5.60;100.00
22688;BME280;11511;51.514;7.080;2022-12-07T13:09:45;100954.00;;;5.61;100.00
22688;BME280;11511;51.514;7.080;2022-12-07T13:15:49;100962.53;;;5.77;100.00
22688;BME280;11511;51.514;7.080;2022-12-07T13:29:20;100951.28;;;5.72;100.00
22688;BME280;11511;51.514;7.080;2022-12-07T13:31:49;100941.41;;;6.00;100.00
22688;BME280;11511;51.514;7.080;2022-12-07T13:34:38;100946.84;;;5.75;100.00
22688;BME280;11511;51.514;7.080;2022-12-07T13:37:24;100949.56;;;5.71;100.00
22688;BME280;11511;51.514;7.080;2022-12-07T13:40:17;100940.34;;;5.36;100.00
22688;BME280;11511;51.514;7.080;2022-12-07T13:42:59;100938.66;;;5.29;100.00
22688;BME280;11511;51.514;7.080;2022-12-07T13:45:36;100932.81;;;5.03;100.00
22688;BME280;11511;51.514;7.080;2022-12-07T13:48:41;100944.16;;;4.97;100.00
22688;BME280;11511;51.514;7.080;2022-12-07T13:51:26;100939.16;;;4.68;100.00
22688;BME280;11511;51.514;7.080;2022-12-07T13:57:26;100932.09;;;4.87;100.00
22688;BME280;11511;51.514;7.080;2022-12-07T14:00:05;100925.03;;;4.97;100.00
22688;BME280;11511;51.514;7.080;2022-12-07T14:02:34;100920.09;;;4.63;100.00
22688;BME280;11511;51.514;7.080;2022-12-07T14:05:22;100929.69;;;4.60;100.00
22688;BME280;11511;51.514;7.080;2022-12-07T14:08:00;100924.31;;;4.78;100.00
22688;BME280;11511;51.514;7.080;2022-12-07T14:13:34;100919.47;;;4.26;100.00
22688;BME280;11511;51.514;7.080;2022-12-07T14:16:30;100926.44;;;4.20;100.00
22688;BME280;11511;51.514;7.080;2022-12-07T14:23:03;100908.28;;;4.07;100.00
22688;BME280;11511;51.514;7.080;2022-12-07T14:25:48;100916.19;;;3.88;100.00
22688;BME280;11511;51.514;7.080;2022-12-07T14:30:56;100911.09;;;3.56;100.00
22688;BME280;11511;51.514;7.080;2022-12-07T14:33:26;100911.09;;;3.57;100.00
22688;BME280;11511;51.514;7.080;2022-12-07T14:36:10;100902.47;;;3.48;100.00
22688;BME280;11511;51.514;7.080;2022-12-07T14:42:37;100914.66;;;3.15;100.00
22688;BME280;11511;51.514;7.080;2022-12-07T14:45:24;100913.81;;;3.04;100.00
22688;BME280;11511;51.514;7.080;2022-12-07T14:51:56;100904.28;;;2.88;100.00
22688;BME280;11511;51.514;7.080;2022-12-07T14:54:33;100904.28;;;2.62;100.00
22688;BME280;11511;51.514;7.080;2022-12-07T15:05:10;100902.53;;;2.50;100.00
22688;BME280;11511;51.514;7.080;2022-12-07T15:08:36;100908.63;;;2.42;100.00
22688;BME280;11511;51.514;7.080;2022-12-07T15:11:40;100910.38;;;2.46;100.00
22688;BME280;11511;51.514;7.080;2022-12-07T15:15:00;100910.25;;;2.00;100.00
22688;BME280;11511;51.514;7.080;2022-12-07T15:30:07;100899.06;;;2.30;100.00
22688;BME280;11511;51.514;7.080;2022-12-07T15:32:38;100902.47;;;2.03;100.00
22688;BME280;11511;51.514;7.080;2022-12-07T15:35:24;100893.00;;;2.32;100.00
22688;BME280;11511;51.514;7.080;2022-12-07T15:45:51;100886.06;;;2.80;100.00
22688;BME280;11511;51.514;7.080;2022-12-07T15:56:23;100878.28;;;2.88;100.00
22688;BME280;11511;51.514;7.080;2022-12-07T16:02:51;100874.81;;;2.87;100.00
22688;BME280;11511;51.514;7.080;2022-12-07T16:05:19;100867.88;;;2.98;100.00
22688;BME280;11511;51.514;7.080;2022-12-07T16:08:10;100873.06;;;2.88;100.00
22688;BME280;11511;51.514;7.080;2022-12-07T16:10:40;100864.38;;;3.02;100.00
22688;BME280;11511;51.514;7.080;2022-12-07T16:13:16;100865.25;;;3.00;100.00
22688;BME280;11511;51.514;7.080;2022-12-07T16:16:28;100860.06;;;2.98;100.00
22688;BME280;11511;51.514;7.080;2022-12-07T16:19:41;100864.41;;;2.92;100.00
22688;BME280;11511;51.514;7.080;2022-12-07T16:22:15;100863.47;;;3.19;100.00
22688;BME280;11511;51.514;7.080;2022-12-07T16:24:50;100863.50;;;3.10;100.00
22688;BME280;11511;51.514;7.080;2022-12-07T16:31:56;100857.41;;;3.11;100.00
22688;BME280;11511;51.514;7.080;2022-12-07T16:38:37;100849.59;;;3.23;100.00
22688;BME280;11511;51.514;7.080;2022-12-07T16:44:39;100857.41;;;3.17;100.00
22688;BME280;11511;51.514;7.080;2022-12-07T16:47:13;100851.31;;;3.22;100.00
22688;BME280;11511;51.514;7.080;2022-12-07T16:49:50;100847.81;;;3.32;100.00
22688;BME280;11511;51.514;7.080;2022-12-07T16:52:21;100850.41;;;3.31;100.00
22688;BME280;11511;51.514;7.080;2022-12-07T16:54:58;100836.56;;;3.24;100.00
22688;BME280;11511;51.514;7.080;2022-12-07T16:57:33;100847.84;;;3.23;100.00
22688;BME280;11511;51.514;7.080;2022-12-07T17:00:41;100842.66;;;3.19;100.00
22688;BME280;11511;51.514;7.080;2022-12-07T17:04:00;100836.59;;;3.23;100.00
22688;BME280;11511;51.514;7.080;2022-12-07T17:06:27;100834.84;;;3.23;100.00
22688;BME280;11511;51.514;7.080;2022-12-07T17:09:01;100833.09;;;3.27;100.00
22688;BME280;11511;51.514;7.080;2022-12-07T17:11:44;100833.97;;;3.23;100.00
22688;BME280;11511;51.514;7.080;2022-12-07T17:14:16;100833.09;;;3.25;100.00
22688;BME280;11511;51.514;7.080;2022-12-07T17:17:08;100830.47;;;3.30;100.00
22688;BME280;11511;51.514;7.080;2022-12-07T17:19:45;100834.78;;;3.31;100.00
22688;BME280;11511;51.514;7.080;2022-12-07T17:22:35;100819.22;;;3.25;100.00
22688;BME280;11511;51.514;7.080;2022-12-07T17:25:34;100815.78;;;3.17;100.00
22688;BME280;11511;51.514;7.080;2022-12-07T17:29:11;100823.59;;;3.09;100.00
22688;BME280;11511;51.514;7.080;2022-12-07T17:31:45;100825.31;;;3.10;100.00
22688;BME280;11511;51.514;7.080;2022-12-07T17:34:15;100825.31;;;3.07;100.00
22688;BME280;11511;51.514;7.080;2022-12-07T17:38:10;100818.38;;;3.04;100.00
22688;BME280;11511;51.514;7.080;2022-12-07T17:40:55;100816.69;;;2.94;100.00
22688;BME280;11511;51.514;7.080;2022-12-07T17:43:26;100814.09;;;2.90;100.00
22688;BME280;11511;51.514;7.080;2022-12-07T17:45:54;100814.97;;;2.81;100.00
22688;BME280;11511;51.514;7.080;2022-12-07T17:48:24;100802.84;;;2.74;100.00
22688;BME280;11511;51.514;7.080;2022-12-07T17:50:59;100807.22;;;2.66;100.00
22688;BME280;11511;51.514;7.080;2022-12-07T17:54:13;100807.19;;;2.73;100.00
22688;BME280;11511;51.514;7.080;2022-12-07T17:56:46;100805.47;;;2.60;100.00
22688;BME280;11511;51.514;7.080;2022-12-07T18:04:05;100803.78;;;2.40;100.00
22688;BME280;11511;51.514;7.080;2022-12-07T18:07:42;100799.41;;;2.55;100.00
22688;BME280;11511;51.514;7.080;2022-12-07T18:10:25;100799.41;;;2.54;100.00
22688;BME280;11511;51.514;7.080;2022-12-07T18:13:11;100802.88;;;2.47;100.00
22688;BME280;11511;51.514;7.080;2022-12-07T18:16:18;100798.50;;;2.75;100.00
22688;BME280;11511;51.514;7.080;2022-12-07T18:19:08;100795.06;;;2.65;100.00
22688;BME280;11511;51.514;7.080;2022-12-07T18:26:05;100795.94;;;2.58;100.00
22688;BME280;11511;51.514;7.080;2022-12-07T18:30:15;100782.94;;;2.68;100.00
22688;BME280;11511;51.514;7.080;2022-12-07T18:37:17;100775.09;;;2.84;100.00
22688;BME280;11511;51.514;7.080;2022-12-07T18:39:44;100772.50;;;2.78;100.00
22688;BME280;11511;51.514;7.080;2022-12-07T18:42:17;100769.94;;;2.71;100.00
22688;BME280;11511;51.514;7.080;2022-12-07T18:44:48;100770.81;;;2.72;100.00
22688;BME280;11511;51.514;7.080;2022-12-07T18:51:48;100777.75;;;2.70;100.00
22688;BME280;11511;51.514;7.080;2022-12-07T18:54:58;100760.34;;;2.81;100.00
22688;BME280;11511;51.514;7.080;2022-12-07T18:57:54;100759.47;;;2.85;100.00
22688;BME280;11511;51.514;7.080;2022-12-07T19:00:25;100746.47;;;2.90;100.00
22688;BME280;11511;51.514;7.080;2022-12-07T19:03:00;100756.00;;;2.89;100.00
22688;BME280;11511;51.514;7.080;2022-12-07T19:06:07;100756.88;;;2.93;100.00
22688;BME280;11511;51.514;7.080;2022-12-07T19:08:41;100757.75;;;2.84;100.00
22688;BME280;11511;51.514;7.080;2022-12-07T19:11:21;100765.56;;;2.81;100.00
22688;BME280;11511;51.514;7.080;2022-12-07T19:15:11;100769.88;;;2.87;100.00
22688;BME280;11511;51.514;7.080;2022-12-07T19:17:41;100764.69;;;2.90;100.00
22688;BME280;11511;51.514;7.080;2022-12-07T19:20:11;100771.63;;;2.82;100.00
22688;BME280;11511;51.514;7.080;2022-12-07T19:22:39;100767.28;;;2.84;100.00
22688;BME280;11511;51.514;7.080;2022-12-07T19:27:51;100762.94;;;2.87;100.00
22688;BME280;11511;51.514;7.080;2022-12-07T19:30:18;100767.28;;;2.84;100.00
22688;BME280;11511;51.514;7.080;2022-12-07T19:32:44;100763.81;;;2.83;100.00
22688;BME280;11511;51.514;7.080;2022-12-07T19:35:20;100772.50;;;2.76;100.00
22688;BME280;11511;51.514;7.080;2022-12-07T19:37:47;100756.03;;;2.80;100.00
22688;BME280;11511;51.514;7.080;2022-12-07T19:40:13;100756.88;;;2.79;100.00
22688;BME280;11511;51.514;7.080;2022-12-07T19:42:40;100756.94;;;2.70;100.00
22688;BME280;11511;51.514;7.080;2022-12-07T19:45:07;100750.88;;;2.72;100.00
22688;BME280;11511;51.514;7.080;2022-12-07T19:47:34;100751.75;;;2.59;100.00
22688;BME280;11511;51.514;7.080;2022-12-07T19:50:01;100747.44;;;2.43;100.00